Time;durP1;ratioP1;P1;durP2;ratioP2;P2;SDS_P1;SDS_P2;PMS_P1;PMS_P2;Temp;Humidity;BMP_temperature;BMP_pressure;BME280_temperature;BME280_humidity;BME280_pressure;Samples;Min_cycle;Max_cycle;Signal;HPM_P1;HPM_P2
2023/06/12 00:00:40;;;;;;;5.53;3.20;;;26.50;69.00;;;;;;5051008;28;20045;-60
2023/06/12 00:03:06;;;;;;;6.80;3.03;;;26.70;68.90;;;;;;5045628;28;20045;-62
2023/06/12 00:05:32;;;;;;;5.88;3.13;;;26.30;68.70;;;;;;5054371;28;20394;-67
2023/06/12 00:07:58;;;;;;;5.15;2.80;;;26.50;68.90;;;;;;5045273;28;20037;-63
2023/06/12 00:10:24;;;;;;;6.45;2.90;;;26.50;68.80;;;;;;5034200;28;20049;-61
2023/06/12 00:12:50;;;;;;;6.07;3.13;;;26.40;68.60;;;;;;5036516;28;20047;-61
2023/06/12 00:15:15;;;;;;;6.00;3.40;;;26.50;68.80;;;;;;5043649;28;20083;-66
2023/06/12 00:17:42;;;;;;;5.93;2.50;;;26.40;68.70;;;;;;5037467;28;20574;-66
2023/06/12 00:20:08;;;;;;;5.47;3.33;;;26.50;68.90;;;;;;5052089;28;20127;-61
2023/06/12 00:22:39;;;;;;;5.35;2.80;;;26.50;68.40;;;;;;5034104;28;20041;-63
2023/06/12 00:25:07;;;;;;;5.32;3.20;;;26.30;68.80;;;;;;5051225;28;20088;-64
2023/06/12 00:27:33;;;;;;;12.40;3.53;;;26.50;68.60;;;;;;5051513;28;20049;-62
2023/06/12 00:29:58;;;;;;;6.45;2.95;;;26.40;68.70;;;;;;5045200;28;20037;-69
2023/06/12 00:32:24;;;;;;;7.10;3.10;;;26.30;68.60;;;;;;5048411;28;20052;-61
2023/06/12 00:34:50;;;;;;;6.50;3.05;;;26.30;68.70;;;;;;5037194;28;20050;-67
2023/06/12 00:37:17;;;;;;;4.75;2.78;;;26.30;68.70;;;;;;5036643;28;20086;-61
2023/06/12 00:39:46;;;;;;;7.55;3.00;;;26.20;68.70;;;;;;5040978;28;20137;-65
2023/06/12 00:42:12;;;;;;;5.95;3.22;;;26.20;68.50;;;;;;5033877;28;20171;-67
2023/06/12 00:44:37;;;;;;;8.90;3.10;;;26.20;68.60;;;;;;5036328;28;20488;-64
2023/06/12 00:47:04;;;;;;;7.55;3.13;;;26.30;68.70;;;;;;5033604;28;20037;-65
2023/06/12 00:49:30;;;;;;;5.53;3.15;;;26.10;68.40;;;;;;5033175;28;20121;-62
2023/06/12 00:51:55;;;;;;;6.00;2.92;;;26.00;68.60;;;;;;5053215;28;20048;-64
2023/06/12 00:54:22;;;;;;;8.95;2.90;;;26.30;68.80;;;;;;5047917;28;20056;-61
2023/06/12 00:56:48;;;;;;;6.25;3.08;;;26.10;68.70;;;;;;5053389;28;20176;-61
2023/06/12 00:59:14;;;;;;;6.93;2.80;;;26.20;68.90;;;;;;5041601;28;20054;-62
2023/06/12 01:01:40;;;;;;;9.15;3.35;;;26.10;68.80;;;;;;5034335;28;20104;-63
2023/06/12 01:04:09;;;;;;;7.55;3.20;;;26.20;68.70;;;;;;5041453;28;20475;-61
2023/06/12 01:06:44;;;;;;;6.35;3.10;;;26.10;68.80;;;;;;5048259;28;20115;-64
2023/06/12 01:09:15;;;;;;;7.70;2.97;;;26.20;69.20;;;;;;5051034;28;20049;-64
2023/06/12 01:11:41;;;;;;;5.15;2.83;;;26.20;68.90;;;;;;5045122;28;20049;-65
2023/06/12 01:14:07;;;;;;;5.57;2.85;;;25.90;68.60;;;;;;5036318;28;20090;-61
2023/06/12 01:16:33;;;;;;;5.72;2.65;;;26.00;68.60;;;;;;5051316;28;20479;-73
2023/06/12 01:19:00;;;;;;;6.93;3.10;;;26.20;68.80;;;;;;5050843;28;20040;-61
2023/06/12 01:21:29;;;;;;;6.75;3.00;;;26.30;69.10;;;;;;5053303;28;20053;-62
2023/06/12 01:24:24;;;;;;;6.63;2.90;;;26.10;68.90;;;;;;5035046;28;20049;-66
2023/06/12 01:27:03;;;;;;;5.35;2.75;;;25.90;69.30;;;;;;5031707;28;20063;-67
2023/06/12 01:29:39;;;;;;;6.03;2.35;;;26.00;69.40;;;;;;5042044;28;20060;-64
2023/06/12 01:32:07;;;;;;;5.82;2.97;;;26.00;67.60;;;;;;5047304;28;20128;-68
2023/06/12 01:34:56;;;;;;;6.22;3.28;;;26.20;69.20;;;;;;5050639;28;20092;-61
2023/06/12 01:37:33;;;;;;;5.03;2.60;;;26.30;69.60;;;;;;5051947;28;20052;-66
2023/06/12 01:40:00;;;;;;;9.07;3.00;;;26.00;69.40;;;;;;5025965;28;20048;-62
2023/06/12 01:42:27;;;;;;;6.80;3.00;;;25.80;69.00;;;;;;5051635;28;20140;-61
2023/06/12 01:44:53;;;;;;;6.97;2.80;;;25.90;69.10;;;;;;5042752;28;20134;-63
2023/06/12 01:47:19;;;;;;;6.60;3.17;;;25.80;69.00;;;;;;5034884;28;20053;-62
2023/06/12 01:49:45;;;;;;;5.57;2.92;;;25.80;69.00;;;;;;5036310;28;20080;-62
2023/06/12 01:52:11;;;;;;;7.20;3.05;;;25.80;68.90;;;;;;5051048;28;20089;-67
2023/06/12 01:54:37;;;;;;;7.03;2.72;;;26.20;69.20;;;;;;5046423;28;20049;-67
2023/06/12 01:57:03;;;;;;;6.65;3.13;;;26.00;69.10;;;;;;5032631;28;20045;-64
2023/06/12 01:59:29;;;;;;;7.28;3.03;;;25.80;69.40;;;;;;5035161;28;20434;-61
2023/06/12 02:01:55;;;;;;;4.82;2.72;;;25.90;69.00;;;;;;5049588;28;20037;-61
2023/06/12 02:04:20;;;;;;;10.75;3.08;;;25.80;69.10;;;;;;5050162;28;20048;-62
2023/06/12 02:06:46;;;;;;;6.30;2.90;;;25.80;69.10;;;;;;5050615;28;20060;-66
2023/06/12 02:09:12;;;;;;;7.65;3.08;;;25.70;69.00;;;;;;5052200;28;20045;-62
2023/06/12 02:11:39;;;;;;;6.50;3.13;;;25.70;69.10;;;;;;5033192;28;20045;-64
2023/06/12 02:14:04;;;;;;;5.40;2.60;;;25.60;69.40;;;;;;5034217;28;20049;-65
2023/06/12 02:16:30;;;;;;;8.73;3.20;;;25.60;69.10;;;;;;5049952;28;20045;-61
2023/06/12 02:18:56;;;;;;;5.45;2.85;;;25.90;69.40;;;;;;5050932;28;20099;-68
2023/06/12 02:21:22;;;;;;;8.80;2.70;;;25.70;69.20;;;;;;5050043;28;20049;-61
2023/06/12 02:23:48;;;;;;;4.97;2.70;;;25.90;69.40;;;;;;5050117;28;20045;-61
2023/06/12 02:26:14;;;;;;;5.75;2.70;;;25.70;69.20;;;;;;5052321;28;20044;-63
2023/06/12 02:28:42;;;;;;;9.52;3.20;;;25.70;69.40;;;;;;5052005;28;20544;-62
2023/06/12 02:31:07;;;;;;;7.97;3.00;;;25.70;69.40;;;;;;5043020;28;20498;-65
2023/06/12 02:33:33;;;;;;;10.55;3.28;;;25.70;69.30;;;;;;5047044;28;20121;-66
2023/06/12 02:35:59;;;;;;;6.10;2.65;;;25.50;69.20;;;;;;5036459;28;20133;-64
2023/06/12 02:38:26;;;;;;;6.38;2.92;;;25.70;69.40;;;;;;5051884;28;20115;-69
2023/06/12 02:40:51;;;;;;;7.30;2.75;;;25.60;69.30;;;;;;5051890;28;20521;-62
2023/06/12 02:43:17;;;;;;;6.95;3.30;;;25.60;69.40;;;;;;5055889;28;20037;-61
2023/06/12 02:45:43;;;;;;;6.32;3.00;;;25.50;69.40;;;;;;5038163;28;20478;-66
2023/06/12 02:48:09;;;;;;;7.60;2.65;;;25.50;69.30;;;;;;5045030;28;20045;-62
2023/06/12 02:50:34;;;;;;;7.00;3.08;;;25.50;69.30;;;;;;5052948;28;20040;-61
2023/06/12 02:53:00;;;;;;;6.00;2.85;;;25.70;69.50;;;;;;5053504;28;20064;-62
2023/06/12 02:55:26;;;;;;;7.45;3.05;;;25.70;73.20;;;;;;5035319;28;20406;-61
2023/06/12 02:57:53;;;;;;;8.32;3.28;;;25.70;69.50;;;;;;5047895;28;20044;-60
2023/06/12 03:00:18;;;;;;;8.00;2.80;;;25.60;69.60;;;;;;5055608;28;20049;-66
2023/06/12 03:02:45;;;;;;;5.32;2.55;;;25.70;69.30;;;;;;5041708;28;20068;-66
2023/06/12 03:05:15;;;;;;;6.40;3.20;;;25.60;69.40;;;;;;5053953;28;20105;-69
2023/06/12 03:07:44;;;;;;;7.65;3.17;;;25.70;68.60;;;;;;5036564;28;20401;-68
2023/06/12 03:10:10;;;;;;;5.70;3.13;;;25.60;69.70;;;;;;5034405;28;20632;-68
2023/06/12 03:12:35;;;;;;;6.03;2.70;;;25.70;69.50;;;;;;5051394;28;20045;-61
2023/06/12 03:15:02;;;;;;;7.20;3.17;;;25.50;69.30;;;;;;5046049;28;20132;-62
2023/06/12 03:17:28;;;;;;;4.95;2.88;;;25.90;69.60;;;;;;5035372;28;20400;-60
2023/06/12 03:19:54;;;;;;;4.80;2.80;;;25.70;69.50;;;;;;5037661;28;20136;-61
2023/06/12 03:22:20;;;;;;;8.40;2.97;;;25.90;69.60;;;;;;5047134;28;20048;-63
2023/06/12 03:24:46;;;;;;;5.05;3.03;;;25.70;69.50;;;;;;5050978;28;20083;-65
2023/06/12 03:27:13;;;;;;;5.10;2.85;;;25.70;69.90;;;;;;5048282;28;20495;-70
2023/06/12 03:29:39;;;;;;;5.28;3.03;;;25.70;69.70;;;;;;5045014;28;20053;-62
2023/06/12 03:32:05;;;;;;;6.45;2.97;;;25.90;69.80;;;;;;5053893;28;20041;-68
2023/06/12 03:34:32;;;;;;;6.65;3.05;;;25.80;69.40;;;;;;5047040;28;20060;-70
2023/06/12 03:36:57;;;;;;;5.88;2.97;;;25.80;70.00;;;;;;5046116;28;20482;-64
2023/06/12 03:39:23;;;;;;;9.45;3.80;;;25.80;69.70;;;;;;5039063;28;20067;-64
2023/06/12 03:41:53;;;;;;;6.45;3.08;;;25.80;69.60;;;;;;5035288;28;20041;-62
2023/06/12 03:44:19;;;;;;;6.97;2.95;;;25.80;70.30;;;;;;5037485;28;20048;-69
2023/06/12 03:46:45;;;;;;;5.57;3.08;;;25.60;69.60;;;;;;5041304;28;20052;-64
2023/06/12 03:49:11;;;;;;;5.97;2.88;;;25.50;69.70;;;;;;5038498;28;20076;-64
2023/06/12 03:51:37;;;;;;;5.97;2.95;;;25.60;70.40;;;;;;5054490;28;20057;-61
2023/06/12 03:54:03;;;;;;;6.65;2.85;;;25.80;70.00;;;;;;5053343;28;20380;-66
2023/06/12 03:56:28;;;;;;;7.13;3.05;;;25.60;69.60;;;;;;5046542;28;20491;-61
2023/06/12 03:58:54;;;;;;;6.50;3.00;;;25.90;70.00;;;;;;5034299;28;20400;-66
2023/06/12 04:01:20;;;;;;;5.88;3.15;;;26.00;70.00;;;;;;5035248;28;20446;-67
2023/06/12 04:03:48;;;;;;;5.30;2.90;;;25.90;69.90;;;;;;5038382;28;20621;-65
2023/06/12 04:06:14;;;;;;;6.85;3.13;;;26.00;70.10;;;;;;5049474;28;20052;-60
2023/06/12 04:08:40;;;;;;;7.13;3.30;;;26.00;70.10;;;;;;5035015;28;20034;-72
2023/06/12 04:11:09;;;;;;;6.47;3.08;;;26.00;69.90;;;;;;5046514;28;20071;-71
2023/06/12 04:13:35;;;;;;;7.10;3.13;;;25.90;69.90;;;;;;5041870;28;20123;-64
2023/06/12 04:16:02;;;;;;;6.75;3.08;;;26.10;69.90;;;;;;5053692;28;20041;-68
2023/06/12 04:18:28;;;;;;;5.35;3.20;;;25.80;69.70;;;;;;5034247;28;20132;-62
2023/06/12 04:20:55;;;;;;;6.65;3.20;;;25.80;69.60;;;;;;5033297;28;20174;-60
2023/06/12 04:23:20;;;;;;;5.47;3.28;;;26.10;70.00;;;;;;5035908;28;20041;-63
2023/06/12 04:25:48;;;;;;;6.05;3.13;;;25.90;69.60;;;;;;5053678;28;20047;-73
2023/06/12 04:28:16;;;;;;;6.05;2.90;;;23.50;68.40;;;;;;5052290;28;20154;-66
2023/06/12 04:30:44;;;;;;;6.10;3.00;;;26.10;70.00;;;;;;5053042;28;20079;-63
2023/06/12 04:33:11;;;;;;;5.97;3.65;;;26.10;70.00;;;;;;5051744;28;20433;-65
2023/06/12 04:35:37;;;;;;;7.43;3.45;;;26.10;70.10;;;;;;5038299;28;20111;-61
2023/06/12 04:38:05;;;;;;;5.45;2.80;;;26.10;70.00;;;;;;5038364;28;20483;-68
2023/06/12 04:40:35;;;;;;;5.10;2.90;;;26.00;69.90;;;;;;5033308;28;20104;-64
2023/06/12 04:43:06;;;;;;;6.63;3.30;;;26.20;70.00;;;;;;5033379;28;20049;-64
2023/06/12 04:45:36;;;;;;;8.82;3.58;;;26.10;68.80;;;;;;5048420;28;20067;-64
2023/06/12 04:48:02;;;;;;;5.60;3.17;;;26.30;70.40;;;;;;5046326;28;20053;-64
2023/06/12 04:50:28;;;;;;;7.15;3.10;;;25.90;69.80;;;;;;5035122;28;20057;-66
2023/06/12 04:52:54;;;;;;;6.93;3.17;;;26.10;70.10;;;;;;5033929;28;20048;-61
2023/06/12 04:55:22;;;;;;;5.97;3.00;;;26.10;70.00;;;;;;5044388;28;20407;-63
2023/06/12 04:57:52;;;;;;;5.38;2.95;;;26.30;69.20;;;;;;5051618;28;20048;-63
2023/06/12 05:00:19;;;;;;;5.25;2.88;;;26.40;68.90;;;;;;5053213;28;20056;-62
2023/06/12 05:02:46;;;;;;;10.32;3.33;;;26.50;69.60;;;;;;5052859;28;20045;-68
2023/06/12 05:05:12;;;;;;;11.23;3.90;;;26.70;68.90;;;;;;5042789;28;20072;-64
2023/06/12 05:07:38;;;;;;;9.20;4.43;;;27.20;69.90;;;;;;5033957;28;20110;-62
2023/06/12 05:10:04;;;;;;;9.63;4.63;;;27.30;68.80;;;;;;5045815;28;20522;-75
2023/06/12 05:12:30;;;;;;;9.85;4.07;;;27.10;68.00;;;;;;5052740;28;20076;-74
2023/06/12 05:14:59;;;;;;;10.38;4.75;;;27.10;68.20;;;;;;5049433;28;20122;-61
2023/06/12 05:17:26;;;;;;;8.20;4.40;;;27.40;68.40;;;;;;5052734;28;20393;-65
2023/06/12 05:19:52;;;;;;;11.90;4.38;;;27.30;68.40;;;;;;5048354;28;20056;-66
2023/06/12 05:22:18;;;;;;;11.13;4.63;;;27.30;68.20;;;;;;5032397;28;20494;-76
2023/06/12 05:24:43;;;;;;;8.70;4.60;;;27.30;68.20;;;;;;5044819;28;20032;-68
2023/06/12 05:27:10;;;;;;;11.38;5.00;;;27.20;68.00;;;;;;5044912;28;20494;-64
2023/06/12 05:29:36;;;;;;;9.65;4.88;;;27.10;68.00;;;;;;5052931;28;20398;-74
2023/06/12 05:32:02;;;;;;;8.60;4.63;;;27.20;67.80;;;;;;5052792;28;20043;-61
2023/06/12 05:34:27;;;;;;;7.25;4.13;;;27.00;67.60;;;;;;5037620;28;20085;-61
2023/06/12 05:36:54;;;;;;;9.63;4.68;;;27.10;67.80;;;;;;5051520;28;20041;-64
2023/06/12 05:39:20;;;;;;;9.65;4.28;;;27.10;68.00;;;;;;5052199;28;20068;-64
2023/06/12 05:41:46;;;;;;;10.13;4.25;;;27.10;67.60;;;;;;5052721;28;20047;-60
2023/06/12 05:44:11;;;;;;;8.35;4.95;;;26.90;67.80;;;;;;5041301;28;20033;-61
2023/06/12 05:46:37;;;;;;;9.68;4.40;;;27.20;67.80;;;;;;5051372;28;20060;-61
2023/06/12 05:49:03;;;;;;;12.75;5.05;;;27.40;67.30;;;;;;5050767;28;20041;-66
2023/06/12 05:51:29;;;;;;;15.18;5.10;;;27.40;67.70;;;;;;5040607;28;20072;-73
2023/06/12 05:53:55;;;;;;;7.63;4.32;;;27.50;67.60;;;;;;5040814;28;20041;-73
2023/06/12 05:56:22;;;;;;;15.27;5.05;;;27.60;67.90;;;;;;5047127;28;20048;-79
2023/06/12 05:58:47;;;;;;;10.68;5.05;;;27.20;67.50;;;;;;5045171;28;20041;-74
2023/06/12 06:01:16;;;;;;;9.57;4.60;;;27.30;67.70;;;;;;5042427;28;20048;-76
2023/06/12 06:03:45;;;;;;;9.52;4.88;;;27.30;67.60;;;;;;5050863;28;20044;-74
2023/06/12 06:06:14;;;;;;;8.25;4.90;;;27.40;67.80;;;;;;5047122;28;20041;-73
2023/06/12 06:08:40;;;;;;;9.82;4.93;;;27.60;68.00;;;;;;5050137;28;20052;-76
2023/06/12 06:11:06;;;;;;;8.10;4.95;;;27.40;67.30;;;;;;5048250;28;20062;-69
2023/06/12 06:13:31;;;;;;;7.65;4.63;;;27.60;67.50;;;;;;5031170;28;20402;-67
2023/06/12 06:15:57;;;;;;;8.13;4.68;;;27.40;67.60;;;;;;5053255;28;20174;-75
2023/06/12 06:18:23;;;;;;;9.60;4.47;;;27.10;67.50;;;;;;5043780;28;20077;-65
2023/06/12 06:20:49;;;;;;;9.98;4.68;;;27.40;67.80;;;;;;5043688;28;20576;-77
2023/06/12 06:23:15;;;;;;;10.48;5.07;;;27.50;67.40;;;;;;5036137;28;20483;-74
2023/06/12 06:25:40;;;;;;;9.95;5.18;;;27.40;67.30;;;;;;5046494;28;20048;-73
2023/06/12 06:28:06;;;;;;;10.18;5.43;;;27.50;67.40;;;;;;5055820;28;20056;-64
2023/06/12 06:30:32;;;;;;;8.80;4.70;;;27.30;67.40;;;;;;5055722;28;20075;-63
2023/06/12 06:32:58;;;;;;;7.60;4.38;;;27.40;68.10;;;;;;5055917;28;20043;-78
2023/06/12 06:35:24;;;;;;;7.70;5.00;;;27.40;67.30;;;;;;5046041;28;20408;-69
2023/06/12 06:37:50;;;;;;;9.23;5.28;;;27.50;67.70;;;;;;5035585;28;20045;-63
2023/06/12 06:40:16;;;;;;;7.82;4.78;;;27.60;67.60;;;;;;5035468;28;20064;-80
2023/06/12 06:42:42;;;;;;;8.75;5.28;;;27.60;67.70;;;;;;5036133;28;20072;-60
2023/06/12 06:45:08;;;;;;;12.07;5.50;;;27.50;67.70;;;;;;5044343;28;20048;-73
2023/06/12 06:47:34;;;;;;;11.02;5.50;;;27.80;67.70;;;;;;5043882;28;20036;-69
2023/06/12 06:50:00;;;;;;;11.55;5.95;;;27.60;68.20;;;;;;5053266;28;20053;-70
2023/06/12 06:52:26;;;;;;;12.30;5.82;;;27.80;67.90;;;;;;5043138;28;20034;-71
2023/06/12 06:54:52;;;;;;;14.95;5.75;;;27.50;67.40;;;;;;5034760;28;20514;-78
2023/06/12 06:57:18;;;;;;;15.95;5.60;;;27.80;67.60;;;;;;5039281;28;20045;-74
2023/06/12 06:59:44;;;;;;;19.38;5.70;;;27.70;67.70;;;;;;5052786;28;20040;-69
2023/06/12 07:02:10;;;;;;;20.30;6.13;;;27.80;67.50;;;;;;5055341;28;20127;-77
2023/06/12 07:04:36;;;;;;;31.52;6.40;;;27.70;67.50;;;;;;5050842;28;20128;-65
2023/06/12 07:07:03;;;;;;;18.65;6.22;;;27.60;67.40;;;;;;5044500;28;20061;-73
2023/06/12 07:09:29;;;;;;;17.48;6.13;;;27.70;67.40;;;;;;5040321;28;20085;-80
2023/06/12 07:11:55;;;;;;;12.98;5.35;;;27.80;67.60;;;;;;5053884;28;20045;-75
2023/06/12 07:14:20;;;;;;;11.05;5.47;;;27.70;67.40;;;;;;5036288;28;20049;-83
2023/06/12 07:16:46;;;;;;;12.15;5.80;;;28.10;67.70;;;;;;5044163;28;20053;-63
2023/06/12 07:19:12;;;;;;;14.20;5.35;;;27.90;67.30;;;;;;5034741;28;20044;-67
2023/06/12 07:21:38;;;;;;;11.95;5.63;;;28.00;68.20;;;;;;5036374;28;20041;-61
2023/06/12 07:24:04;;;;;;;9.60;5.75;;;27.80;67.40;;;;;;5035089;28;20041;-63
2023/06/12 07:26:30;;;;;;;11.18;5.15;;;27.90;67.30;;;;;;5045052;28;20055;-72
2023/06/12 07:28:56;;;;;;;9.60;5.38;;;27.80;67.10;;;;;;5053154;28;20045;-72
2023/06/12 07:31:22;;;;;;;8.68;5.40;;;28.00;67.40;;;;;;5046289;28;20037;-69
2023/06/12 07:33:48;;;;;;;10.20;4.75;;;28.00;67.30;;;;;;5034136;28;20047;-61
2023/06/12 07:36:14;;;;;;;13.55;6.50;;;27.80;67.30;;;;;;5034439;28;20056;-74
2023/06/12 07:38:41;;;;;;;14.45;5.50;;;28.30;67.70;;;;;;5050470;28;20056;-66
2023/06/12 07:41:08;;;;;;;10.48;4.97;;;28.50;67.70;;;;;;5034763;28;20049;-64
2023/06/12 07:43:34;;;;;;;9.32;5.68;;;28.40;67.10;;;;;;5047989;28;20037;-62
2023/06/12 07:46:03;;;;;;;10.30;5.60;;;28.20;67.00;;;;;;5050600;28;20068;-74
2023/06/12 07:48:29;;;;;;;10.05;5.70;;;28.20;67.50;;;;;;5039985;28;20048;-74
2023/06/12 07:50:55;;;;;;;9.93;5.90;;;28.20;67.00;;;;;;5033996;28;20057;-74
2023/06/12 07:53:20;;;;;;;13.13;5.50;;;28.20;67.00;;;;;;5047804;28;20044;-70
2023/06/12 07:55:47;;;;;;;9.60;4.50;;;28.50;67.40;;;;;;5052167;28;20123;-62
2023/06/12 07:58:13;;;;;;;15.15;5.47;;;28.40;67.70;;;;;;5034350;28;20075;-74
2023/06/12 08:00:39;;;;;;;13.13;5.63;;;28.20;67.20;;;;;;5034779;28;20042;-73
2023/06/12 08:03:04;;;;;;;16.13;5.45;;;28.60;67.50;;;;;;5035506;28;20037;-75
2023/06/12 08:05:30;;;;;;;17.50;5.63;;;28.30;67.40;;;;;;5044810;28;20060;-79
2023/06/12 08:07:57;;;;;;;16.67;5.78;;;28.60;67.60;;;;;;5046493;28;20049;-76
2023/06/12 08:10:23;;;;;;;16.35;5.95;;;28.30;67.60;;;;;;5045085;28;20041;-61
2023/06/12 08:12:49;;;;;;;13.98;6.28;;;28.70;67.60;;;;;;5046970;28;20387;-76
2023/06/12 08:15:15;;;;;;;14.80;6.05;;;28.60;68.10;;;;;;5051633;28;20045;-68
2023/06/12 08:17:43;;;;;;;14.70;5.70;;;28.60;67.40;;;;;;5045086;28;20478;-73
2023/06/12 08:20:10;;;;;;;15.48;5.82;;;28.60;67.50;;;;;;5046888;28;20045;-74
2023/06/12 08:22:36;;;;;;;15.05;6.70;;;28.40;66.90;;;;;;5054005;28;20040;-62
2023/06/12 08:25:06;;;;;;;17.38;6.65;;;28.70;67.60;;;;;;5053789;28;20120;-77
2023/06/12 08:27:33;;;;;;;12.57;6.32;;;28.60;67.50;;;;;;5052164;28;20455;-80
2023/06/12 08:30:00;;;;;;;11.15;5.80;;;28.50;67.70;;;;;;5033163;28;20057;-71
2023/06/12 08:32:26;;;;;;;14.73;6.47;;;28.40;67.70;;;;;;5034136;28;20041;-66
2023/06/12 08:34:53;;;;;;;13.60;6.07;;;28.40;67.90;;;;;;5049200;28;20490;-83
2023/06/12 08:37:22;;;;;;;14.95;6.22;;;28.50;67.80;;;;;;5052002;28;20092;-79
2023/06/12 08:39:47;;;;;;;12.63;6.60;;;28.50;66.40;;;;;;5049478;28;20064;-75
2023/06/12 08:42:15;;;;;;;11.73;6.07;;;28.40;67.60;;;;;;5044122;28;20045;-68
2023/06/12 08:44:44;;;;;;;8.10;5.57;;;28.70;68.30;;;;;;5037711;28;20037;-75
2023/06/12 08:47:10;;;;;;;11.60;5.82;;;28.50;68.30;;;;;;5036804;28;20041;-71
2023/06/12 08:49:36;;;;;;;13.80;6.05;;;28.60;68.00;;;;;;5042632;28;20037;-74
2023/06/12 08:52:01;;;;;;;9.95;5.80;;;28.80;68.10;;;;;;5017520;28;20132;-70
2023/06/12 08:54:28;;;;;;;11.90;5.82;;;28.60;68.00;;;;;;5033294;28;20549;-75
2023/06/12 08:56:57;;;;;;;9.60;5.63;;;28.30;68.10;;;;;;5035975;28;20037;-75
2023/06/12 08:59:22;;;;;;;12.73;6.15;;;28.80;68.50;;;;;;5042642;28;20446;-71
2023/06/12 09:01:53;;;;;;;9.70;5.70;;;28.70;68.20;;;;;;5051388;28;20143;-68
2023/06/12 09:04:26;;;;;;;9.88;6.05;;;28.90;68.40;;;;;;5045578;28;20053;-80
2023/06/12 09:06:52;;;;;;;25.73;7.13;;;29.10;68.80;;;;;;5042188;28;20115;-72
2023/06/12 09:09:18;;;;;;;15.88;6.47;;;29.00;68.60;;;;;;5048147;28;20068;-72
2023/06/12 09:11:44;;;;;;;14.90;6.43;;;28.90;68.80;;;;;;5048920;28;20375;-76
2023/06/12 09:14:10;;;;;;;13.02;6.47;;;28.60;67.90;;;;;;5050611;28;20437;-76
2023/06/12 09:16:36;;;;;;;12.13;6.50;;;28.90;68.40;;;;;;5051454;28;20045;-81
2023/06/12 09:19:01;;;;;;;9.40;6.13;;;28.90;68.30;;;;;;5036538;28;20037;-63
2023/06/12 09:21:27;;;;;;;11.45;6.18;;;28.80;68.30;;;;;;5030435;28;20136;-76
2023/06/12 09:23:55;;;;;;;12.38;7.18;;;29.00;68.40;;;;;;5031931;28;20399;-79
2023/06/12 09:26:22;;;;;;;14.63;7.25;;;29.20;68.80;;;;;;5032073;28;20053;-71
2023/06/12 09:28:54;;;;;;;16.80;6.10;;;29.00;68.40;;;;;;5042956;28;20053;-72
2023/06/12 09:31:20;;;;;;;8.77;6.30;;;29.00;68.50;;;;;;5051823;28;20058;-68
2023/06/12 09:33:46;;;;;;;12.15;7.30;;;28.80;68.10;;;;;;5051908;28;20048;-69
2023/06/12 09:36:12;;;;;;;15.00;7.40;;;28.90;68.00;;;;;;5049272;28;20045;-69
2023/06/12 09:38:38;;;;;;;12.80;7.00;;;29.00;68.10;;;;;;5043667;28;20060;-69
2023/06/12 09:41:05;;;;;;;12.52;7.32;;;28.90;67.90;;;;;;5050750;28;20187;-73
2023/06/12 09:43:31;;;;;;;17.83;8.18;;;29.00;68.40;;;;;;5032096;28;20120;-81
2023/06/12 09:45:57;;;;;;;10.02;7.45;;;29.00;67.90;;;;;;5034281;28;20360;-71
2023/06/12 09:48:23;;;;;;;9.77;6.68;;;28.90;67.60;;;;;;5040328;28;20060;-69
2023/06/12 09:50:50;;;;;;;11.15;7.40;;;28.90;68.00;;;;;;5040750;28;20052;-61
2023/06/12 09:53:20;;;;;;;11.63;7.20;;;28.90;68.00;;;;;;5037184;28;20049;-71
2023/06/12 09:55:46;;;;;;;14.63;6.97;;;28.90;68.30;;;;;;5031698;28;20055;-69
2023/06/12 09:58:13;;;;;;;12.90;6.18;;;28.70;67.90;;;;;;5037695;28;20045;-69
2023/06/12 10:00:39;;;;;;;11.52;7.38;;;29.10;68.20;;;;;;5072482;28;20052;-72
2023/06/12 10:03:06;;;;;;;11.85;6.35;;;28.90;67.80;;;;;;5045730;28;20037;-71
2023/06/12 10:05:37;;;;;;;18.08;7.22;;;28.90;67.90;;;;;;5051172;28;20052;-79
2023/06/12 10:08:06;;;;;;;10.70;6.78;;;29.20;68.00;;;;;;5048375;28;20048;-66
2023/06/12 10:10:35;;;;;;;11.93;7.28;;;29.00;66.80;;;;;;5032892;28;20092;-64
2023/06/12 10:13:01;;;;;;;10.13;6.03;;;29.10;66.40;;;;;;5044628;28;20519;-74
2023/06/12 10:15:29;;;;;;;9.85;6.68;;;29.20;67.60;;;;;;5037301;28;20045;-65
2023/06/12 10:17:55;;;;;;;12.95;6.07;;;29.00;67.70;;;;;;5035920;28;20522;-70
2023/06/12 10:20:22;;;;;;;8.80;6.57;;;29.00;67.60;;;;;;5044475;28;20042;-61
2023/06/12 10:22:48;;;;;;;9.43;6.32;;;29.20;67.60;;;;;;5055635;28;20120;-62
2023/06/12 10:25:14;;;;;;;10.27;6.28;;;29.00;67.30;;;;;;5030154;28;20124;-82
2023/06/12 10:27:40;;;;;;;16.83;7.95;;;29.00;67.50;;;;;;5043733;28;20036;-75
2023/06/12 10:30:10;;;;;;;12.25;6.63;;;29.10;67.30;;;;;;5049486;28;20072;-61
2023/06/12 10:32:36;;;;;;;15.85;6.80;;;29.20;67.20;;;;;;5038487;28;20126;-76
2023/06/12 10:35:02;;;;;;;15.20;6.50;;;29.30;67.30;;;;;;5049624;28;20166;-71
2023/06/12 10:37:42;;;;;;;9.98;6.15;;;28.80;66.90;;;;;;5039655;28;20491;-73
2023/06/12 10:40:16;;;;;;;11.02;7.15;;;29.10;68.00;;;;;;5045794;28;20087;-72
2023/06/12 10:42:53;;;;;;;11.82;6.47;;;29.20;68.00;;;;;;5051450;28;20175;-74
2023/06/12 10:45:23;;;;;;;11.88;7.40;;;29.10;67.20;;;;;;5039143;28;20099;-71
2023/06/12 10:48:02;;;;;;;10.38;7.03;;;29.00;65.90;;;;;;5034859;28;20072;-61
2023/06/12 10:50:36;;;;;;;10.65;6.32;;;29.00;66.20;;;;;;5052927;28;20541;-73
2023/06/12 10:53:07;;;;;;;10.60;6.53;;;29.20;66.10;;;;;;5031585;28;20049;-73
2023/06/12 10:55:34;;;;;;;9.10;6.38;;;29.10;67.60;;;;;;5031663;28;20053;-75
2023/06/12 10:58:03;;;;;;;9.23;6.53;;;29.30;67.60;;;;;;5031982;28;20046;-74
2023/06/12 11:00:52;;;;;;;10.15;6.38;;;29.50;67.70;;;;;;5035763;28;20049;-68
2023/06/12 11:03:29;;;;;;;12.07;6.10;;;29.10;67.20;;;;;;5036604;28;20495;-62
2023/06/12 11:05:56;;;;;;;9.40;6.68;;;29.30;67.60;;;;;;5034614;28;20045;-71
2023/06/12 11:08:23;;;;;;;10.88;6.57;;;29.10;67.30;;;;;;5050049;28;20110;-73
2023/06/12 11:10:49;;;;;;;11.10;6.60;;;29.10;67.10;;;;;;5055285;28;20045;-72
2023/06/12 11:13:15;;;;;;;8.73;6.15;;;29.20;66.80;;;;;;5052012;28;20513;-75
2023/06/12 11:15:45;;;;;;;13.70;6.80;;;29.40;67.00;;;;;;5054476;28;20049;-69
2023/06/12 11:18:12;;;;;;;10.77;7.00;;;29.20;67.70;;;;;;5040421;28;20434;-72
2023/06/12 11:20:37;;;;;;;7.68;6.15;;;29.20;66.60;;;;;;5049818;28;20072;-71
2023/06/12 11:23:03;;;;;;;10.02;6.28;;;29.30;66.60;;;;;;5053548;28;20479;-71
2023/06/12 11:25:43;;;;;;;9.10;6.15;;;29.50;67.40;;;;;;5033167;28;20561;-66
2023/06/12 11:28:09;;;;;;;14.68;6.78;;;29.10;65.60;;;;;;5038442;28;20044;-70
2023/06/12 11:30:35;;;;;;;11.88;6.85;;;29.40;66.90;;;;;;5053124;28;20102;-73
2023/06/12 11:33:13;;;;;;;11.48;6.97;;;29.10;66.40;;;;;;5037008;28;20487;-71
2023/06/12 11:35:47;;;;;;;11.32;7.32;;;29.40;66.60;;;;;;5050456;28;20463;-65
2023/06/12 11:38:14;;;;;;;9.90;6.47;;;29.40;66.70;;;;;;5044736;28;20051;-62
2023/06/12 11:40:41;;;;;;;13.23;7.43;;;29.30;66.60;;;;;;5046773;28;20065;-67
2023/06/12 11:43:07;;;;;;;12.82;7.68;;;29.50;66.60;;;;;;5016938;28;20555;-67
2023/06/12 11:45:33;;;;;;;15.02;7.78;;;29.10;65.90;;;;;;5034410;28;20128;-70
2023/06/12 11:48:02;;;;;;;14.68;7.78;;;29.30;65.70;;;;;;5015200;28;20426;-71
2023/06/12 11:50:28;;;;;;;9.65;7.20;;;29.50;65.30;;;;;;5000752;28;20053;-67
2023/06/12 11:52:54;;;;;;;15.85;7.68;;;29.60;65.80;;;;;;5016412;28;20071;-72
2023/06/12 11:55:21;;;;;;;18.58;7.88;;;29.20;65.30;;;;;;5016104;28;20061;-71
2023/06/12 11:57:48;;;;;;;11.15;7.03;;;29.30;65.20;;;;;;5033370;28;20075;-70
2023/06/12 12:00:20;;;;;;;11.02;6.70;;;29.50;65.60;;;;;;5043636;28;20106;-70
2023/06/12 12:02:51;;;;;;;14.77;7.57;;;29.30;65.50;;;;;;5038143;28;20049;-71
2023/06/12 12:05:22;;;;;;;10.35;6.45;;;29.70;64.40;;;;;;5046412;28;20680;-66
2023/06/12 12:07:57;;;;;;;9.18;6.97;;;29.30;66.00;;;;;;5025630;28;20379;-71
2023/06/12 12:10:24;;;;;;;10.45;7.20;;;29.40;64.60;;;;;;5004554;28;20400;-72
2023/06/12 12:12:59;;;;;;;11.25;7.25;;;29.30;65.40;;;;;;5032135;28;20049;-74
2023/06/12 12:15:27;;;;;;;11.68;8.02;;;29.30;65.60;;;;;;5039956;28;20513;-73
2023/06/12 12:17:53;;;;;;;13.05;8.07;;;29.40;65.30;;;;;;5042774;28;20041;-71
2023/06/12 12:20:23;;;;;;;9.55;7.32;;;29.40;64.70;;;;;;5053667;28;20101;-78
2023/06/12 12:22:50;;;;;;;10.70;8.25;;;29.40;64.50;;;;;;5052269;28;20044;-72
2023/06/12 12:25:18;;;;;;;10.65;8.27;;;29.50;64.50;;;;;;5051519;28;20085;-65
2023/06/12 12:27:45;;;;;;;12.60;8.13;;;29.30;64.10;;;;;;5042112;28;20074;-75
2023/06/12 12:30:14;;;;;;;15.95;8.98;;;29.80;64.10;;;;;;5051277;28;20086;-79
2023/06/12 12:32:42;;;;;;;11.10;7.72;;;29.50;63.70;;;;;;5039128;28;20377;-82
2023/06/12 12:35:08;;;;;;;13.30;8.07;;;29.60;63.80;;;;;;5042324;28;20131;-76
2023/06/12 12:37:34;;;;;;;9.98;7.63;;;29.40;63.80;;;;;;5043474;28;20041;-86
2023/06/12 12:40:01;;;;;;;10.60;6.95;;;29.70;63.80;;;;;;5041465;28;20053;-81
2023/06/12 12:42:27;;;;;;;10.57;7.15;;;29.50;64.00;;;;;;5032024;28;20415;-68